Granite City, IL (62040)

4:39 PM CDT on October 15, 2019 (GMT -0500)
Madison | | Change Station
Active Advisory: Flood Warning

Elev 406 ft 38.68 °N, 90.16 °W | Updated 9 minutes ago

Overcast
Overcast
70.8 °F
Feels Like 77 °F
N
4
Wind Variable Wind from SSE
Gusts 6.0 mph

Today
High -- | Low -- °F
--% Chance of Precip.
Yesterday
High -- | Low -- °F
Precip. -- in
Pressure 29.83 in
Visibility 10.0 miles
Clouds Few 2300 ft
Mostly Cloudy 4500 ft
Heat Index 77 °F
Dew Point 54 °F
Humidity 55%
Rainfall 0.00 in
Snow Depth Not available.
7:09 AM 6:22 PM
Waning Gibbous, 96% visible
METAR KSTL 152051Z 24010KT 10SM FEW023 BKN045 22/16 A2985 RMK AO2 SLP102 T02170156 55006
Pressure 29.83 in
Visibility 10.0 miles
Clouds Few 2300 ft
Mostly Cloudy 4500 ft
Heat Index 77 °F
Dew Point 54 °F
Humidity 55%
Rainfall 0.00 in
Snow Depth Not available.
7:09 AM 6:22 PM
Waning Gibbous, 96% visible
METAR KSTL 152051Z 24010KT 10SM FEW023 BKN045 22/16 A2985 RMK AO2 SLP102 T02170156 55006

Get Your Daily Forecast Email!

Thanks for signing up!

Be on the lookout for a verification email in your inbox.

You'll start receiving severe weather alerts in your inbox..

×

10-Day Weather Forecast

Almanac

Astronomy

Oct. 15, 2019 Rise Set
Actual Time
Civil Twilight
Nautical Twilight
Astronomical Twilight
Moon
Length of Visible Light
Length of Day
Tomorrow will be .
, % of the Moon is Illuminated

Today's Extremes

State Highs State Lows

Community

WunderPhotos

Category 6

Welcome to Category 6. This is the collective home for Weather Underground's featured writeups by Dr. Jeff Masters (right), Bob Henson (left), Chris Burt, and other regular contributors.

Nearby

Air Quality

  Air Quality AQ Index Pollutant
Not available.

Snow Depth

Station Depth Elevation

Earthquake Activity

City Distance Mag. Time & Date
Minimum magnitude displayed is 2.5.

Coastal Water Temperatures

Place Temperature

Stations

Nearby Weather Stations

Station Location Temp. Windchill Dew Point Humidity Wind Precip. Elev Updated Type
                   

Watches & Warnings

Flood Warning
Issued: 10:56 AM CDT Oct. 14, 2019 – National Weather Service

The Flood Warning continues for
the Mississippi River at mel price lock and dam
* until further notice.
* At 10:30 am Monday the stage was 24.7 feet.
* Flood stage is 21.0 feet.
* Minor flooding is forecast.
* The river will continue to fall to a stage of 24.4 feet by tomorrow
morning.

                   Fld latest 7 a.M. Forecast
location stg obs stg 10/15 10/16 10/17 10/18 10/19

Mississippi River
mel price ld 21.0 24.73 24.4 24.0 23.9 23.8 23.6




Lat... Lon 3891 9033 3895 9028 3883 9003 3881 9017
      3886 9017